.
WxDataArchive / Data Records for 2007-04-16
2007-04-15 April 2007 2007-04-17

Data Records for Monday, 16 April 2007

Time	Temp	Chill	HIndex	Humid	Dewpt	 Wind 	HiWind	WindDir	Rain 	Barom 
-----	----	-----	------	-----	-----	------	------	-------	-----	----- 
00:00	38.6	38.6	38.6	57	24.7	1	4	270	0.00	29.858 
00:05	38.8	38.8	38.8	57	24.9	1	4	292	0.00	29.856 
00:10	38.6	38.6	38.6	57	24.7	1	3	315	0.00	29.857 
00:15	38.6	38.6	38.6	57	24.7	1	3	292	0.00	29.855 
00:20	38.6	38.6	38.6	57	24.7	0	2	292	0.00	29.856 
00:25	38.5	38.5	38.5	58	25.0	0	3	292	0.00	29.859 
00:30	38.5	38.5	38.5	58	25.0	1	5	292	0.00	29.859 
00:35	38.6	38.6	38.6	57	24.7	1	3	292	0.00	29.856 
00:40	38.8	38.8	38.8	56	24.5	1	5	338	0.00	29.859 
00:45	38.6	38.6	38.6	57	24.7	0	3	292	0.00	29.861 
00:50	38.5	38.5	38.5	57	24.6	0	3	292	0.00	29.862 
00:55	38.3	38.3	38.3	57	24.4	0	3	292	0.00	29.864 
01:00	38.2	38.2	38.2	58	24.7	0	3	0	0.00	29.862 
01:05	38.0	38.0	38.0	58	24.6	1	3	338	0.00	29.862 
01:10	37.9	37.9	37.9	58	24.5	1	2	292	0.00	29.861 
01:15	37.9	37.9	37.9	58	24.5	0	2	315	0.00	29.858 
01:20	37.6	37.6	37.6	59	24.6	0	2	315	0.00	29.860 
01:25	37.5	37.5	37.5	59	24.5	0	2	315	0.00	29.859 
01:30	37.3	37.3	37.3	60	24.7	0	2	315	0.00	29.857 
01:35	37.2	37.2	37.2	60	24.6	0	2	315	0.00	29.856 
01:40	37.0	37.0	37.0	60	24.4	1	3	270	0.00	29.852 
01:45	36.9	36.9	36.9	60	24.3	0	3	270	0.00	29.850 
01:50	36.8	36.8	36.8	61	24.6	0	2	270	0.00	29.849 
01:55	36.6	36.6	36.6	61	24.4	0	1	270	0.00	29.849 
02:00	36.5	36.5	36.5	61	24.3	0	1	270	0.00	29.848 
02:05	36.3	36.3	36.3	62	24.5	0	1	270	0.00	29.848 
02:10	36.2	36.2	36.2	62	24.5	0	1	270	0.00	29.848 
02:15	36.0	36.0	36.0	62	24.3	0	2	270	0.00	29.849 
02:20	35.9	35.9	35.9	63	24.5	0	1	270	0.00	29.849 
02:25	35.8	35.8	35.8	63	24.5	0	1	270	0.00	29.849 
02:30	35.6	35.6	35.6	64	24.6	0	1	270	0.00	29.849 
02:35	35.6	35.6	35.6	64	24.6	0	3	270	0.00	29.849 
02:40	35.8	35.8	35.8	63	24.5	0	2	270	0.00	29.849 
02:45	35.6	35.6	35.6	64	24.6	0	1	270	0.00	29.849 
02:50	35.6	35.6	35.6	64	24.6	0	3	270	0.00	29.848 
02:55	35.5	35.5	35.5	64	24.5	0	2	270	0.00	29.848 
03:00	35.5	35.5	35.5	64	24.5	0	2	270	0.00	29.846 
03:05	35.5	35.5	35.5	64	24.5	0	2	270	0.00	29.848 
03:10	35.3	35.3	35.3	65	24.7	0	1	270	0.00	29.850 
03:15	35.3	35.3	35.3	65	24.7	1	3	315	0.00	29.850 
03:20	35.2	35.2	35.2	65	24.6	0	2	292	0.00	29.850 
03:25	35.0	35.0	35.0	66	24.8	0	3	270	0.00	29.852 
03:30	35.2	35.2	35.2	65	24.6	1	4	292	0.00	29.852 
03:35	35.2	35.2	35.2	65	24.6	0	4	270	0.00	29.854 
03:40	35.2	35.2	35.2	65	24.6	1	5	270	0.00	29.854 
03:45	35.2	35.2	35.2	65	24.6	1	3	270	0.00	29.854 
03:50	35.2	35.2	35.2	65	24.6	1	5	292	0.00	29.858 
03:55	35.3	35.3	35.3	65	24.7	1	3	270	0.00	29.859 
04:00	35.3	35.3	35.3	64	24.4	1	3	315	0.00	29.860 
04:05	35.2	35.2	35.2	65	24.6	0	2	270	0.00	29.863 
04:10	35.0	35.0	35.0	65	24.4	1	3	270	0.00	29.865 
04:15	35.0	35.0	35.0	65	24.4	0	3	270	0.00	29.866 
04:20	34.9	34.9	34.9	65	24.3	0	4	292	0.00	29.867 
04:25	34.9	34.9	34.9	65	24.3	0	3	315	0.00	29.868 
04:30	34.7	34.7	34.7	65	24.2	0	2	270	0.00	29.869 
04:35	34.6	34.6	34.6	65	24.1	0	2	270	0.00	29.867 
04:40	34.4	34.4	34.4	66	24.2	0	2	270	0.00	29.869 
04:45	34.3	34.3	34.3	66	24.1	0	3	270	0.00	29.869 
04:50	34.3	34.3	34.3	67	24.5	0	2	270	0.00	29.871 
04:55	34.1	34.1	34.1	67	24.3	0	3	248	0.00	29.877 
05:00	34.1	34.1	34.1	67	24.3	0	2	292	0.00	29.878 
05:05	34.0	34.0	34.0	68	24.6	0	2	225	0.00	29.881 
05:10	33.8	33.8	33.8	68	24.4	0	2	248	0.00	29.882 
05:15	33.8	33.8	33.8	68	24.4	0	3	292	0.00	29.882 
05:20	33.8	33.8	33.8	68	24.4	0	1	292	0.00	29.884 
05:25	33.7	33.7	33.7	69	24.6	1	3	270	0.00	29.885 
05:30	33.7	33.7	33.7	69	24.6	0	1	270	0.00	29.886 
05:35	33.5	33.5	33.5	69	24.4	0	1	270	0.00	29.890 
05:40	33.4	33.4	33.4	69	24.3	0	2	270	0.00	29.891 
05:45	33.2	33.2	33.2	70	24.5	0	1	270	0.00	29.896 
05:50	33.2	33.2	33.2	70	24.5	1	4	248	0.00	29.897 
05:55	33.4	33.4	33.4	69	24.3	1	3	315	0.00	29.899 
06:00	33.4	33.4	33.4	69	24.3	1	3	270	0.00	29.902 
06:05	33.4	33.4	33.4	69	24.3	1	2	292	0.00	29.911 
06:10	33.4	33.4	33.4	69	24.3	1	3	315	0.00	29.915 
06:15	33.5	33.5	33.5	69	24.4	1	4	315	0.00	29.916 
06:20	33.7	33.7	33.7	69	24.6	1	5	292	0.00	29.916 
06:25	34.0	34.0	34.0	68	24.6	2	5	338	0.00	29.918 
06:30	34.1	34.1	34.1	67	24.3	1	4	315	0.00	29.921 
06:35	34.3	34.3	34.3	67	24.5	1	3	292	0.00	29.925 
06:40	34.6	34.6	34.6	66	24.4	1	3	270	0.00	29.926 
06:45	34.7	34.7	34.7	66	24.5	1	3	270	0.00	29.928 
06:50	35.0	35.0	35.0	65	24.4	1	5	270	0.00	29.931 
06:55	35.3	35.3	35.3	64	24.4	2	5	292	0.00	29.930 
07:00	35.8	35.8	35.8	63	24.5	2	5	270	0.00	29.927 
07:05	36.2	36.2	36.2	62	24.5	2	6	315	0.00	29.931 
07:10	36.5	36.5	36.5	61	24.3	2	5	315	0.00	29.933 
07:15	36.8	36.8	36.8	59	23.8	2	5	338	0.00	29.932 
07:20	37.0	37.0	37.0	59	24.0	2	6	315	0.00	29.933 
07:25	37.5	37.5	37.5	58	24.1	2	7	270	0.00	29.933 
07:30	37.9	37.9	37.9	57	24.0	2	5	315	0.00	29.933 
07:35	38.2	38.2	38.2	57	24.3	2	4	270	0.00	29.934 
07:40	38.5	38.5	38.5	55	23.8	2	6	270	0.00	29.931 
07:45	38.9	38.9	38.9	53	23.2	3	6	292	0.00	29.931 
07:50	39.1	39.1	39.1	51	22.5	3	7	292	0.00	29.932 
07:55	39.5	39.5	39.5	52	23.3	3	10	292	0.00	29.931 
08:00	39.8	39.8	39.8	51	23.2	2	5	315	0.00	29.931 
08:05	40.3	40.3	40.3	51	23.6	2	6	315	0.00	29.931 
08:10	40.6	40.6	40.6	50	23.4	3	7	270	0.00	29.930 
08:15	40.9	40.9	40.9	50	23.7	3	5	270	0.00	29.930 
08:20	41.2	41.2	41.2	50	24.0	3	6	292	0.00	29.930 
08:25	41.6	41.6	41.6	48	23.4	3	6	292	0.00	29.929 
08:30	41.9	41.9	41.9	46	22.6	3	7	270	0.00	29.927 
08:35	42.1	39.7	42.1	46	22.8	4	15	270	0.00	29.927 
08:40	42.3	42.3	42.3	47	23.5	3	7	292	0.00	29.926 
08:45	42.6	40.3	42.6	46	23.3	4	10	270	0.00	29.924 
08:50	42.9	42.9	42.9	48	24.6	3	10	292	0.00	29.926 
08:55	43.3	43.3	43.3	46	23.9	3	7	315	0.00	29.928 
09:00	43.5	41.4	43.5	44	23.1	4	11	270	0.00	29.928 
09:05	43.9	43.9	43.9	46	24.5	2	6	292	0.00	29.932 
09:10	44.6	44.6	44.6	43	23.5	3	11	270	0.00	29.933 
09:15	44.5	42.5	44.5	43	23.4	4	7	270	0.00	29.931 
09:20	44.9	44.9	44.9	43	23.8	3	6	315	0.00	29.931 
09:25	45.2	45.2	45.2	43	24.0	3	7	338	0.00	29.930 
09:30	45.7	45.7	45.7	45	25.6	3	7	338	0.00	29.931 
09:35	45.8	44.0	45.8	37	21.0	4	13	338	0.00	29.929 
09:40	46.2	44.5	46.2	38	22.0	4	10	292	0.00	29.929 
09:45	46.4	44.7	46.4	35	20.3	4	10	338	0.00	29.929 
09:50	46.5	44.8	46.5	35	20.3	4	11	292	0.00	29.929 
09:55	47.3	47.3	47.3	34	20.4	3	9	0	0.00	29.928 
10:00	47.0	44.7	47.0	34	20.1	5	13	338	0.00	29.929 
10:05	46.8	44.5	46.8	34	19.9	5	14	0	0.00	29.931 
10:10	47.3	45.0	47.3	33	19.7	5	14	315	0.00	29.933 
10:15	47.3	45.0	47.3	34	20.4	5	11	338	0.00	29.933 
10:20	48.0	46.6	48.0	33	20.3	4	11	315	0.00	29.932 
10:25	47.9	45.8	47.9	32	19.5	5	15	292	0.00	29.934 
10:30	47.9	46.4	47.9	35	21.6	4	9	315	0.00	29.936 
10:35	48.0	45.9	48.0	34	21.0	5	18	315	0.00	29.935 
10:40	48.2	46.1	48.2	32	19.7	5	12	315	0.00	29.940 
10:45	48.2	45.5	48.2	35	21.8	6	17	315	0.00	29.940 
10:50	48.2	46.1	48.2	31	19.0	5	13	338	0.00	29.940 
10:55	48.8	46.8	48.8	31	19.5	5	13	315	0.00	29.940 
11:00	48.6	46.0	48.6	36	22.9	6	14	338	0.00	29.939 
11:05	49.6	49.6	49.6	38	25.0	3	6	315	0.00	29.933 
11:10	50.1	50.1	50.1	35	23.5	3	9	0	0.00	29.932 
11:15	50.2	50.2	50.2	33	22.2	4	10	338	0.00	29.933 
11:20	50.2	50.2	50.2	35	23.6	4	10	315	0.00	29.936 
11:25	50.4	50.4	50.4	33	22.4	5	11	338	0.00	29.930 
11:30	50.1	50.1	50.1	33	22.1	4	13	292	0.00	29.930 
11:35	50.5	50.5	50.5	36	24.6	5	20	292	0.00	29.930 
11:40	50.7	50.7	50.7	35	24.1	5	15	270	0.00	29.927 
11:45	51.1	51.1	51.1	33	23.0	5	11	292	0.00	29.927 
11:50	51.0	51.0	51.0	33	22.9	5	12	315	0.00	29.927 
11:55	51.4	51.4	51.4	33	23.3	4	13	315	0.00	29.925 
12:00	51.7	51.7	51.7	35	24.9	4	15	315	0.00	29.925 
12:05	51.9	51.9	51.9	31	22.2	5	20	338	0.00	29.923 
12:10	51.4	51.4	51.4	33	23.3	5	13	315	0.00	29.918 
12:15	51.9	51.9	51.9	31	22.2	5	14	315	0.00	29.915 
12:20	52.6	52.6	52.6	32	23.6	4	10	338	0.00	29.913 
12:25	52.8	52.8	52.8	31	23.0	4	10	315	0.00	29.913 
12:30	52.9	52.9	52.9	33	24.6	3	17	338	0.00	29.912 
12:35	53.1	53.1	53.1	31	23.3	4	13	292	0.00	29.912 
12:40	53.5	53.5	53.5	33	25.1	4	10	292	0.00	29.912 
12:45	53.6	53.6	53.6	30	22.9	4	11	315	0.00	29.910 
12:50	53.5	53.5	53.5	30	22.8	5	13	292	0.00	29.910 
12:55	53.5	53.5	53.5	32	24.4	5	13	292	0.00	29.908 
13:00	53.5	53.5	53.5	30	22.8	4	16	0	0.00	29.906 
13:05	54.2	54.2	54.2	31	24.2	4	12	292	0.00	29.900 
13:10	54.4	54.4	54.4	29	22.8	4	11	338	0.00	29.898 
13:15	54.7	54.7	54.7	28	22.2	4	10	315	0.00	29.897 
13:20	55.0	55.0	55.0	31	24.9	4	10	292	0.00	29.896 
13:25	54.5	54.5	54.5	28	22.1	5	11	292	0.00	29.895 
13:30	54.7	54.7	54.7	30	23.9	4	9	315	0.00	29.894 
13:35	54.7	54.7	54.7	28	22.2	5	11	292	0.00	29.895 
13:40	54.7	54.7	54.7	28	22.2	4	8	292	0.00	29.893 
13:45	55.3	55.3	55.3	29	23.6	3	7	0	0.00	29.890 
13:50	55.1	55.1	55.1	29	23.4	4	9	0	0.00	29.889 
13:55	55.4	55.4	55.4	32	26.0	3	10	292	0.00	29.887 
14:00	55.7	55.7	55.7	29	23.9	4	10	270	0.00	29.882 
14:05	55.3	55.3	55.3	31	25.2	5	14	270	0.00	29.887 
14:10	54.5	54.5	54.5	28	22.1	5	12	315	0.00	29.887 
14:15	54.2	54.2	54.2	30	23.5	4	16	292	0.00	29.887 
14:20	54.8	54.8	54.8	29	23.2	4	10	338	0.00	29.883 
14:25	55.0	55.0	55.0	28	22.5	5	10	270	0.00	29.882 
14:30	54.8	54.8	54.8	27	21.5	5	12	270	0.00	29.881 
14:35	54.7	54.7	54.7	28	22.2	5	9	338	0.00	29.883 
14:40	54.4	54.4	54.4	27	21.1	5	10	315	0.00	29.885 
14:45	54.4	54.4	54.4	27	21.1	5	12	315	0.00	29.885 
14:50	54.2	54.2	54.2	27	21.0	5	11	315	0.00	29.880 
14:55	54.7	54.7	54.7	29	23.1	4	12	292	0.00	29.879 
15:00	54.7	54.7	54.7	26	20.5	5	10	338	0.00	29.877 
15:05	55.0	55.0	55.0	29	23.3	3	10	270	0.00	29.876 
15:10	55.3	55.3	55.3	28	22.8	3	7	292	0.00	29.871 
15:15	55.0	55.0	55.0	28	22.5	5	13	292	0.00	29.872 
15:20	54.7	54.7	54.7	27	21.4	5	13	315	0.00	29.868 
15:25	54.5	54.5	54.5	27	21.2	5	11	292	0.00	29.869 
15:30	54.8	54.8	54.8	27	21.5	4	13	315	0.00	29.869 
15:35	54.7	54.7	54.7	27	21.4	4	10	338	0.00	29.870 
15:40	54.8	54.8	54.8	27	21.5	4	10	270	0.00	29.868 
15:45	54.7	54.7	54.7	26	20.5	5	15	270	0.00	29.869 
15:50	54.2	54.2	54.2	26	20.1	5	11	292	0.00	29.868 
15:55	54.5	54.5	54.5	27	21.2	4	12	292	0.00	29.868 
16:00	55.1	55.1	55.1	26	20.8	4	15	292	0.00	29.865 
16:05	55.0	55.0	55.0	28	22.5	3	7	338	0.00	29.867 
16:10	54.8	54.8	54.8	27	21.5	4	9	270	0.00	29.867 
16:15	55.0	55.0	55.0	26	20.8	4	10	270	0.00	29.867 
16:20	55.1	55.1	55.1	27	21.7	3	7	338	0.00	29.872 
16:25	55.1	55.1	55.1	26	20.8	3	7	292	0.00	29.877 
16:30	54.7	54.7	54.7	26	20.5	4	12	315	0.00	29.872 
16:35	54.5	54.5	54.5	26	20.3	5	13	270	0.00	29.876 
16:40	54.4	54.4	54.4	27	21.1	4	10	292	0.00	29.877 
16:45	54.2	54.2	54.2	26	20.1	4	15	338	0.00	29.874 
16:50	54.1	54.1	54.1	26	20.0	4	9	292	0.00	29.874 
16:55	54.1	54.1	54.1	27	20.9	5	17	338	0.00	29.872 
17:00	54.1	54.1	54.1	25	19.1	4	13	292	0.00	29.878 
17:05	53.8	53.8	53.8	26	19.7	4	11	292	0.00	29.882 
17:10	53.9	53.9	53.9	27	20.7	3	10	315	0.00	29.883 
17:15	53.9	53.9	53.9	27	20.7	3	12	292	0.00	29.882 
17:20	53.5	53.5	53.5	26	19.5	5	13	338	0.00	29.882 
17:25	53.5	53.5	53.5	27	20.4	3	6	338	0.00	29.883 
17:30	53.3	53.3	53.3	27	20.2	4	10	292	0.00	29.883 
17:35	53.3	53.3	53.3	28	21.0	3	7	0	0.00	29.884 
17:40	53.3	53.3	53.3	28	21.0	3	10	270	0.00	29.885 
17:45	53.1	53.1	53.1	27	20.0	4	10	270	0.00	29.885 
17:50	52.8	52.8	52.8	28	20.6	3	7	292	0.00	29.889 
17:55	52.6	52.6	52.6	28	20.4	4	12	315	0.00	29.890 
18:00	52.3	52.3	52.3	27	19.3	3	15	315	0.00	29.891 
18:05	52.3	52.3	52.3	28	20.2	4	10	315	0.00	29.894 
18:10	52.2	52.2	52.2	27	19.2	3	6	338	0.00	29.891 
18:15	52.0	52.0	52.0	28	19.9	4	10	292	0.00	29.890 
18:20	51.7	51.7	51.7	27	18.8	3	7	270	0.00	29.895 
18:25	51.4	51.4	51.4	28	19.4	4	12	315	0.00	29.895 
18:30	51.1	51.1	51.1	27	18.3	5	12	315	0.00	29.897 
18:35	51.0	51.0	51.0	28	19.1	3	8	0	0.00	29.897 
18:40	50.8	50.8	50.8	27	18.0	4	12	315	0.00	29.898 
18:45	50.5	50.5	50.5	29	19.4	3	8	315	0.00	29.898 
18:50	50.4	50.4	50.4	30	20.2	3	6	292	0.00	29.898 
18:55	50.2	50.2	50.2	31	20.7	2	7	338	0.00	29.899 
19:00	49.8	49.8	49.8	30	19.6	3	10	315	0.00	29.900 
19:05	49.5	49.5	49.5	30	19.4	3	5	338	0.00	29.898 
19:10	49.4	49.4	49.4	30	19.3	3	7	338	0.00	29.899 
19:15	49.1	49.1	49.1	31	19.8	2	8	270	0.00	29.899 
19:20	48.8	48.8	48.8	29	18.0	3	7	338	0.00	29.900 
19:25	48.8	48.8	48.8	28	17.2	3	6	315	0.00	29.904 
19:30	48.5	48.5	48.5	28	16.9	2	6	270	0.00	29.908 
19:35	48.2	48.2	48.2	28	16.6	2	11	315	0.00	29.910 
19:40	48.0	48.0	48.0	27	15.6	3	5	315	0.00	29.912 
19:45	47.9	47.9	47.9	28	16.4	2	6	270	0.00	29.913 
19:50	47.9	47.9	47.9	27	15.5	3	7	315	0.00	29.914 
19:55	47.7	47.7	47.7	28	16.2	3	7	338	0.00	29.916 
20:00	47.7	47.7	47.7	28	16.2	3	6	338	0.00	29.917 
20:05	47.6	47.6	47.6	27	15.3	2	5	338	0.00	29.919 
20:10	47.3	47.3	47.3	27	15.0	2	6	292	0.00	29.924 
20:15	47.1	47.1	47.1	28	15.7	2	4	315	0.00	29.925 
20:20	47.1	47.1	47.1	28	15.7	2	4	338	0.00	29.925 
20:25	47.0	47.0	47.0	28	15.6	2	5	338	0.00	29.927 
20:30	46.8	46.8	46.8	29	16.2	1	4	315	0.00	29.927 
20:35	46.7	46.7	46.7	29	16.2	2	4	292	0.00	29.925 
20:40	46.7	46.7	46.7	29	16.2	1	5	315	0.00	29.927 
20:45	46.5	46.5	46.5	29	16.0	2	5	270	0.00	29.925 
20:50	46.5	46.5	46.5	30	16.8	2	7	270	0.00	29.926 
20:55	46.2	46.2	46.2	31	17.3	1	3	292	0.00	29.928 
21:00	46.1	46.1	46.1	30	16.4	1	2	315	0.00	29.929 
21:05	46.1	46.1	46.1	31	17.2	1	4	292	0.00	29.929 
21:10	46.0	46.0	46.0	31	17.1	1	3	315	0.00	29.928 
21:15	45.8	45.8	45.8	32	17.6	1	5	315	0.00	29.930 
21:20	45.7	45.7	45.7	32	17.6	1	3	315	0.00	29.931 
21:25	45.7	45.7	45.7	32	17.6	1	5	292	0.00	29.929 
21:30	45.7	45.7	45.7	32	17.6	1	5	292	0.00	29.929 
21:35	45.7	45.7	45.7	32	17.6	2	4	292	0.00	29.932 
21:40	45.7	45.7	45.7	33	18.3	1	3	338	0.00	29.932 
21:45	45.5	45.5	45.5	33	18.1	1	3	315	0.00	29.929 
21:50	45.4	45.4	45.4	33	18.0	1	4	315	0.00	29.928 
21:55	45.2	45.2	45.2	34	18.5	1	5	338	0.00	29.928 
22:00	45.2	45.2	45.2	34	18.5	1	3	248	0.00	29.928 
22:05	45.1	45.1	45.1	34	18.4	1	2	292	0.00	29.927 
22:10	44.9	44.9	44.9	36	19.6	1	4	315	0.00	29.926 
22:15	44.8	44.8	44.8	35	18.8	1	3	270	0.00	29.926 
22:20	44.6	44.6	44.6	35	18.7	1	3	338	0.00	29.928 
22:25	44.5	44.5	44.5	36	19.2	0	2	338	0.00	29.926 
22:30	44.2	44.2	44.2	37	19.6	0	2	338	0.00	29.928 
22:35	44.1	44.1	44.1	37	19.5	0	2	292	0.00	29.928 
22:40	43.9	43.9	43.9	37	19.3	0	2	270	0.00	29.928 
22:45	43.9	43.9	43.9	38	20.0	1	3	270	0.00	29.929 
22:50	43.9	43.9	43.9	39	20.6	0	3	315	0.00	29.930 
22:55	43.9	43.9	43.9	39	20.6	0	2	315	0.00	29.927 
23:00	43.8	43.8	43.8	39	20.5	0	1	315	0.00	29.927 
23:05	43.5	43.5	43.5	39	20.2	0	1	315	0.00	29.925 
23:10	43.5	43.5	43.5	39	20.2	0	2	315	0.00	29.928 
23:15	43.5	43.5	43.5	40	20.8	0	1	315	0.00	29.926 
23:20	43.3	43.3	43.3	40	20.6	0	2	225	0.00	29.926 
23:25	43.1	43.1	43.1	41	21.0	1	2	248	0.00	29.928 
23:30	43.2	43.2	43.2	41	21.1	0	3	315	0.00	29.928 
23:35	43.1	43.1	43.1	42	21.6	0	2	315	0.00	29.928 
23:40	42.8	42.8	42.8	42	21.3	0	3	315	0.00	29.929 
23:45	42.3	42.3	42.3	43	21.4	0	1	225	0.00	29.929 
23:50	42.2	42.2	42.2	43	21.3	0	1	225	0.00	29.926 
23:55	42.2	42.2	42.2	43	21.3	0	3	338	0.00	29.925 

CoCoRaHS
IN-AL-39
A2 Web Hosting
Creative Commons License
GoDaddy
Look for:

loaded 2017-12-11 14:25:17 • last modified 2010-11-18 10:43:29
Privacy PolicyDisclaimer
• wx.awcolley.com is powered by PmWiki v.2002016 •
• all content (unless otherwise noted) © 2017 A W Colley